Friday, January 18, 2019, 2:37 AM EST
Back to Local

KBID, Block Island, Block Island State Airport

Location: Block Island, RI, United States Lat: 41.167
Local Time: 2:37 AM EST ( 7:37 GMT) Lon: -71.567
Time Zone: US/Eastern Elev: 108 ft

Show me the last for .
Show Decoded

2019-01-18 01:56 METAR KBID 180656Z AUTO 13007KT 10SM SCT030 BKN070 OVC090 01/M05 A3023 RMK AO2
                 SLP241 T00061050 FZRANO =
2019-01-18 00:56 METAR KBID 180556Z AUTO 14011KT 10SM BKN060 OVC085 01/M06 A3024 RMK AO2 SLP243
                 6//// T00061061 10006 21017 FZRANO =
2019-01-17 23:56 METAR KBID 180456Z AUTO 13008KT 10SM FEW032 OVC100 00/M06 A3027 RMK AO2 SLP254
                 T00001061 FZRANO =
2019-01-17 22:56 METAR KBID 180356Z AUTO 12006KT 10SM OVC110 M01/M07 RMK AO2 SLPNO T10061067
                 400221039 FZRANO $ =
2019-01-17 21:56 METAR KBID 180256Z AUTO 13004KT 10SM SCT120 M01/M07 A3032 RMK AO2 SLP272 6////
                 T10111072 FZRANO =
2019-01-17 20:56 METAR KBID 180156Z AUTO 13006KT 10SM CLR M02/M08 A3031 RMK AO2 SLP270 T10171078
                 FZRANO =
2019-01-17 19:56 METAR KBID 180056Z AUTO 13006KT 10SM SCT120 M01/M08 RMK AO2 SLPNO T10111083
                 FZRANO $ =
2019-01-17 18:56 METAR KBID 172356Z AUTO 14006KT 10SM FEW120 M02/M10 A3034 RMK AO2 SLP279 6////
                 T10171100 11017 21033 55000 FZRANO =
2019-01-17 17:56 METAR KBID 172256Z AUTO 13007KT 10SM OVC110 M02/M11 A3033 RMK AO2 SLP275
                 T10221111 FZRANO =
2019-01-17 16:56 METAR KBID 172156Z AUTO 13004KT 10SM CLR M03/M12 A3033 RMK AO2 SLP277 T10281117
                 FZRANO =
2019-01-17 15:56 METAR KBID 172056Z AUTO 12005KT 10SM CLR M03/M13 A3034 RMK AO2 SLP279 6////
                 T10281133 FZRANO =
2019-01-17 14:56 METAR KBID 171956Z AUTO 12005KT 10SM CLR M02/M14 A3035 RMK AO2 SLP281 T10221144
                 FZRANO =
2019-01-17 13:56 METAR KBID 171856Z AUTO 10SM CLR M02/M16 RMK AO2 SLPNO T10221161 FZRANO $ =
2019-01-17 12:56 METAR KBID 171756Z AUTO 33004KT 10SM CLR M02/M16 A3037 RMK AO2 SLP288 6////
                 T10221161 11022 21039 58013 FZRANO =
2019-01-17 11:56 METAR KBID 171656Z AUTO VRB05KT 10SM CLR M03/M16 A3038 RMK AO2 SLP293 T10281161
                 FZRANO =
2019-01-17 10:56 METAR KBID 171556Z AUTO 10SM CLR M03/M15 A3040 RMK AO2 SLP299 T10281150 FZRANO $
                 =
2019-01-17 09:56 METAR KBID 171456Z AUTO 34008KT 10SM CLR M03/M15 A3040 RMK AO2 SLP300 6////
                 T10331150 53019 FZRANO =
2019-01-17 08:56 METAR KBID 171356Z AUTO 34007KT 10SM CLR M04/M15 A3038 RMK AO2 SLP293 T10391150
                 FZRANO =
2019-01-17 07:56 METAR KBID 171256Z AUTO 34008KT 10SM CLR M04/M14 A3036 RMK AO2 SLP286 T10391139
                 FZRANO =
2019-01-17 06:56 METAR KBID 171156Z AUTO 34007KT 10SM CLR M04/M12 A3035 RMK AO2 SLP281 6////
                 7//// T10391122 11006 21039 53029 FZRANO =
2019-01-17 05:56 METAR KBID 171056Z AUTO 34011G14KT 10SM CLR M03/M11 A3031 RMK AO2 SLP268
                 T10331106 FZRANO =
2019-01-17 04:56 METAR KBID 170956Z AUTO 34009G14KT 10SM CLR M03/M09 A3028 RMK AO2 SLP259
                 T10281089 FZRANO =
2019-01-17 03:56 METAR KBID 170856Z AUTO 32014G19KT 10SM CLR M02/M09 A3026 RMK AO2 SLP252 6////
                 T10221094 FZRANO =
2019-01-17 02:56 METAR KBID 170756Z AUTO 33011G20KT 10SM CLR M02/M09 A3025 RMK AO2 SLP248
                 T10171094 FZRANO =

Support USWX by starting your Amazon purchase here.